Time;durP1;ratioP1;P1;durP2;ratioP2;P2;SDS_P1;SDS_P2;PMS_P1;PMS_P2;Temp;Humidity;BMP_temperature;BMP_pressure;BME280_temperature;BME280_humidity;BME280_pressure;Samples;Min_cycle;Max_cycle;Signal;HPM_P1;HPM_P2
2022/12/08 00:00:41;;;;;;;17.38;12.00;;;;;;;2.72;75.47;99546.66;1087805;39;20436;-79
2022/12/08 00:01:45;;;;;;;19.65;13.15;;;;;;;2.65;75.74;99547.06;1087072;31;20547;-79
2022/12/08 00:02:46;;;;;;;17.30;11.85;;;;;;;2.71;75.53;99547.59;1086322;54;20084;-79
2022/12/08 00:03:51;;;;;;;18.33;11.95;;;;;;;2.73;75.58;99556.28;1086673;39;20519;-79
2022/12/08 00:10:14;;;;;;;17.77;12.02;;;;;;;2.61;75.65;99542.97;1086387;54;20042;-78
2022/12/08 00:11:16;;;;;;;18.75;12.07;;;;;;;2.56;76.03;99545.06;1086234;54;20054;-79
2022/12/08 00:12:20;;;;;;;17.02;12.18;;;;;;;2.62;75.89;99546.44;1086512;54;20043;-79
2022/12/08 00:13:23;;;;;;;22.75;14.45;;;;;;;2.71;75.64;99537.03;1086244;54;20047;-78
2022/12/08 00:14:31;;;;;;;18.13;12.38;;;;;;;2.54;75.82;99540.84;1086124;54;20045;-78
2022/12/08 00:15:35;;;;;;;17.75;12.48;;;;;;;2.65;75.48;99541.78;1086867;46;20921;-78
2022/12/08 00:16:46;;;;;;;18.60;12.65;;;;;;;2.55;76.04;99543.38;1087081;54;20708;-80
2022/12/08 00:17:47;;;;;;;19.15;12.88;;;;;;;2.66;75.34;99540.00;1088834;46;20046;-79
2022/12/08 00:18:53;;;;;;;18.02;11.77;;;;;;;2.75;75.26;99539.38;1087844;46;20034;-79
2022/12/08 00:19:54;;;;;;;19.50;11.88;;;;;;;2.71;75.21;99539.69;1087657;46;20042;-79
2022/12/08 00:21:00;;;;;;;17.25;12.30;;;;;;;2.63;75.41;99546.34;1087414;54;20069;-80
2022/12/08 00:22:02;;;;;;;18.05;11.80;;;;;;;2.67;75.46;99540.84;1087613;54;20057;-80
2022/12/08 00:23:12;;;;;;;18.60;12.35;;;;;;;2.59;75.79;99542.22;1087425;54;20030;-80
2022/12/08 00:24:13;;;;;;;14.13;9.77;;;;;;;2.54;76.11;99538.22;1086781;54;20073;-83
2022/12/08 00:25:18;;;;;;;18.27;12.35;;;;;;;2.60;75.80;99543.91;1088194;39;20363;-80
2022/12/08 00:26:19;;;;;;;18.85;12.52;;;;;;;2.63;75.55;99534.94;1086470;54;20038;-79
2022/12/08 00:27:23;;;;;;;19.63;13.35;;;;;;;2.52;75.98;99540.97;1086587;54;20075;-80
2022/12/08 00:28:25;;;;;;;18.42;13.07;;;;;;;2.56;76.15;99533.69;1086663;54;20571;-78
2022/12/08 00:29:29;;;;;;;20.13;12.82;;;;;;;2.48;76.05;99534.19;1086531;54;20060;-80
2022/12/08 00:30:31;;;;;;;16.98;11.98;;;;;;;2.60;75.98;99529.84;1086271;54;20555;-78
2022/12/08 00:31:38;;;;;;;18.42;12.88;;;;;;;2.64;75.51;99532.22;1088074;46;20027;-79
2022/12/08 00:32:39;;;;;;;18.23;12.02;;;;;;;2.53;76.03;99528.59;1089910;39;20621;-79
2022/12/08 00:33:43;;;;;;;18.92;12.82;;;;;;;2.43;76.27;99526.59;1087317;54;20038;-79
2022/12/08 00:34:45;;;;;;;18.73;12.25;;;;;;;2.41;76.18;99520.56;1086722;54;20046;-79
2022/12/08 00:35:49;;;;;;;16.73;11.20;;;;;;;2.56;76.00;99528.41;1086314;54;20563;-79
2022/12/08 00:36:53;;;;;;;18.38;11.95;;;;;;;2.52;76.14;99533.03;1086595;54;20685;-79
2022/12/08 00:37:55;;;;;;;19.20;13.15;;;;;;;2.42;76.60;99534.63;1086456;54;20575;-79
2022/12/08 00:38:59;;;;;;;19.05;12.32;;;;;;;2.46;76.20;99528.16;1086861;54;20037;-79
2022/12/08 00:40:00;;;;;;;19.42;13.05;;;;;;;2.41;76.47;99525.84;1086250;54;20053;-79
2022/12/08 00:41:05;;;;;;;19.70;12.43;;;;;;;2.32;76.64;99521.19;1086325;54;20649;-79
2022/12/08 00:42:13;;;;;;;19.10;13.35;;;;;;;2.40;76.68;99533.88;1086002;54;20113;-79
2022/12/08 00:43:17;;;;;;;18.38;12.60;;;;;;;2.39;76.70;99521.63;1085993;54;20114;-79
2022/12/08 00:44:19;;;;;;;18.50;13.07;;;;;;;2.38;76.39;99519.94;1086375;54;20050;-78
2022/12/08 00:45:23;;;;;;;16.38;11.63;;;;;;;2.46;76.39;99523.75;1086588;54;20042;-78
2022/12/08 00:46:24;;;;;;;15.60;11.23;;;;;;;2.63;75.80;99519.97;1086638;54;20079;-78
2022/12/08 00:47:31;;;;;;;17.48;12.02;;;;;;;2.63;75.20;99519.97;1089766;39;20546;-79
2022/12/08 00:48:33;;;;;;;17.42;12.52;;;;;;;2.53;75.65;99524.19;1086436;54;20042;-80
2022/12/08 00:49:37;;;;;;;16.90;12.63;;;;;;;2.46;75.64;99528.16;1086837;54;20040;-79
2022/12/08 00:50:39;;;;;;;17.30;12.75;;;;;;;2.50;75.89;99521.75;1087313;54;20745;-79
2022/12/08 00:51:44;;;;;;;19.30;12.50;;;;;;;2.62;75.57;99523.53;1087288;54;20077;-79
2022/12/08 00:52:45;;;;;;;17.48;12.32;;;;;;;2.71;75.17;99515.94;1087418;54;20061;-79
2022/12/08 00:53:49;;;;;;;17.15;12.07;;;;;;;2.77;74.92;99510.22;1087408;54;20014;-79
2022/12/08 00:54:53;;;;;;;16.45;11.02;;;;;;;2.78;74.66;99506.63;1086902;54;20065;-79
2022/12/08 00:55:55;;;;;;;15.75;11.27;;;;;;;2.73;74.54;99508.75;1086587;54;20076;-79
2022/12/08 00:56:59;;;;;;;14.45;10.77;;;;;;;2.77;74.52;99510.22;1086542;47;20034;-79
2022/12/08 00:58:02;;;;;;;15.57;10.52;;;;;;;2.68;74.64;99516.13;1087892;39;20456;-79
2022/12/08 00:59:07;;;;;;;16.80;11.50;;;;;;;2.56;75.23;99515.19;1086439;54;20034;-78
2022/12/08 01:00:09;;;;;;;18.63;12.60;;;;;;;2.37;75.35;99515.63;1086356;54;20082;-78
2022/12/08 01:01:14;;;;;;;18.63;12.18;;;;;;;2.36;75.88;99508.66;1086308;54;20038;-79
2022/12/08 01:02:15;;;;;;;17.00;12.20;;;;;;;2.27;75.97;99507.50;1086193;54;20050;-79
2022/12/08 01:03:22;;;;;;;17.38;12.20;;;;;;;2.34;75.81;99506.97;1086816;54;20038;-79
2022/12/08 01:04:24;;;;;;;17.58;12.13;;;;;;;2.54;75.19;99510.03;1087030;54;20077;-79
2022/12/08 01:05:28;;;;;;;16.02;11.35;;;;;;;2.59;75.16;99518.47;1087135;54;20060;-80
2022/12/08 01:06:30;;;;;;;14.80;10.45;;;;;;;2.72;74.79;99509.72;1087255;54;20069;-79
2022/12/08 01:07:34;;;;;;;13.35;10.13;;;;;;;2.74;74.76;99507.81;1086926;54;20038;-78
2022/12/08 01:08:36;;;;;;;14.93;11.02;;;;;;;2.82;74.34;99516.03;1087275;54;20034;-79
2022/12/08 01:09:41;;;;;;;14.48;9.75;;;;;;;2.87;74.40;99507.78;1087208;54;20045;-79
2022/12/08 01:10:42;;;;;;;18.20;11.48;;;;;;;2.89;74.04;99512.00;1087488;54;20073;-79
2022/12/08 01:11:47;;;;;;;17.45;10.15;;;;;;;2.92;73.88;99514.44;1086789;54;20106;-78
2022/12/08 01:12:48;;;;;;;13.38;9.70;;;;;;;2.95;73.92;99505.44;1087077;54;20045;-79
2022/12/08 01:13:52;;;;;;;14.18;10.05;;;;;;;2.80;74.12;99504.72;1086965;54;20034;-79
2022/12/08 01:14:56;;;;;;;14.15;10.20;;;;;;;2.93;74.00;99504.69;1086735;46;20039;-79
2022/12/08 01:15:58;;;;;;;14.82;10.18;;;;;;;2.93;73.87;99502.88;1087078;54;20049;-79
2022/12/08 01:17:02;;;;;;;14.25;9.88;;;;;;;3.00;73.58;99505.09;1087097;54;20060;-79
2022/12/08 01:18:04;;;;;;;15.02;10.63;;;;;;;2.91;73.73;99502.19;1086836;54;20052;-80
2022/12/08 01:19:12;;;;;;;12.82;8.90;;;;;;;2.99;73.59;99503.41;1087264;54;20027;-80
2022/12/08 01:20:13;;;;;;;14.50;9.73;;;;;;;3.03;73.64;99504.88;1087233;54;20065;-79
2022/12/08 01:21:18;;;;;;;13.18;9.38;;;;;;;3.05;73.44;99503.84;1087217;54;20042;-79
2022/12/08 01:22:22;;;;;;;13.50;9.00;;;;;;;3.06;73.51;99505.53;1087533;39;20613;-79
2022/12/08 01:23:23;;;;;;;12.32;8.77;;;;;;;3.11;73.34;99503.38;1087134;54;20054;-79
2022/12/08 01:24:27;;;;;;;13.88;9.48;;;;;;;3.03;73.52;99500.44;1086959;54;20106;-78
2022/12/08 01:25:29;;;;;;;12.60;8.90;;;;;;;3.11;73.45;99497.28;1089475;39;21152;-78
2022/12/08 01:26:34;;;;;;;12.50;9.48;;;;;;;3.08;73.38;99503.59;1087066;54;20065;-79
2022/12/08 01:27:35;;;;;;;12.48;8.52;;;;;;;3.15;73.24;99503.16;1086848;54;20038;-79
2022/12/08 01:28:40;;;;;;;12.38;8.57;;;;;;;3.14;73.25;99507.59;1087042;54;20583;-79
2022/12/08 01:29:44;;;;;;;12.52;8.27;;;;;;;3.16;73.18;99510.97;1087062;54;20061;-79
2022/12/08 01:30:45;;;;;;;13.57;9.45;;;;;;;3.10;73.35;99506.13;1086942;54;20046;-80
2022/12/08 01:31:49;;;;;;;12.90;8.75;;;;;;;3.16;73.12;99505.69;1087049;54;20060;-79
2022/12/08 01:32:51;;;;;;;12.25;8.98;;;;;;;3.16;73.08;99500.41;1087035;54;20053;-79
2022/12/08 01:33:55;;;;;;;11.18;8.30;;;;;;;3.17;72.83;99502.09;1087324;46;20547;-79
2022/12/08 01:35:00;;;;;;;12.20;8.05;;;;;;;3.19;72.79;99502.84;1087450;39;20550;-79
2022/12/08 01:36:05;;;;;;;12.32;8.38;;;;;;;3.21;72.93;99502.72;1086918;54;20060;-79
2022/12/08 01:37:07;;;;;;;11.70;7.57;;;;;;;3.22;72.91;99510.53;1087076;54;20042;-79
2022/12/08 01:38:11;;;;;;;12.68;8.38;;;;;;;3.24;72.83;99513.06;1087177;54;20112;-79
2022/12/08 01:39:17;;;;;;;11.90;8.27;;;;;;;3.22;72.92;99509.69;1087619;46;20591;-79
2022/12/08 01:40:19;;;;;;;10.95;7.60;;;;;;;3.25;72.92;99515.59;1086891;54;20065;-78
2022/12/08 01:41:26;;;;;;;10.63;7.65;;;;;;;3.23;72.91;99509.56;1087446;39;20432;-79
2022/12/08 01:42:28;;;;;;;12.48;7.78;;;;;;;3.21;73.05;99508.00;1087689;39;20345;-79
2022/12/08 01:43:55;;;;;;;11.77;8.05;;;;;;;3.20;72.53;99507.16;1087032;54;20050;-80
2022/12/08 01:45:03;;;;;;;12.00;7.90;;;;;;;3.19;72.84;99510.75;1087060;54;20042;-79
2022/12/08 01:46:04;;;;;;;11.55;7.60;;;;;;;3.19;72.65;99509.91;1088921;31;20669;-79
2022/12/08 01:47:09;;;;;;;11.88;8.20;;;;;;;3.14;72.81;99502.31;1087384;54;20030;-79
2022/12/08 01:48:17;;;;;;;13.77;8.77;;;;;;;3.12;72.71;99509.50;1086822;54;20038;-79
2022/12/08 01:49:27;;;;;;;12.18;8.45;;;;;;;3.11;72.79;99499.91;1087382;39;20995;-79
2022/12/08 01:50:31;;;;;;;13.80;8.93;;;;;;;3.15;72.73;99498.72;1086775;54;20069;-78
2022/12/08 01:51:43;;;;;;;13.82;8.98;;;;;;;3.15;72.64;99503.16;1086686;54;20030;-79
2022/12/08 01:52:49;;;;;;;12.00;8.15;;;;;;;3.14;72.64;99499.66;1086816;54;20065;-79
2022/12/08 01:53:53;;;;;;;13.30;7.97;;;;;;;3.15;72.57;99503.16;1086889;54;20106;-80
2022/12/08 01:55:00;;;;;;;12.38;8.15;;;;;;;3.08;72.80;99497.47;1087665;46;20062;-79
2022/12/08 01:56:08;;;;;;;13.88;8.90;;;;;;;3.02;72.92;99496.13;1087125;54;20042;-78
2022/12/08 01:57:14;;;;;;;12.10;8.40;;;;;;;3.09;72.76;99504.44;1087497;31;20730;-79
2022/12/08 01:58:22;;;;;;;11.57;8.35;;;;;;;3.11;72.77;99505.19;1089079;39;20508;-79
2022/12/08 01:59:25;;;;;;;11.38;8.18;;;;;;;3.12;72.63;99501.56;1087150;54;20073;-79
2022/12/08 02:00:30;;;;;;;14.18;9.93;;;;;;;3.05;72.86;99505.59;1087597;46;20035;-80
2022/12/08 02:01:31;;;;;;;13.55;9.13;;;;;;;3.07;72.61;99501.06;1087266;54;20042;-79
2022/12/08 02:02:43;;;;;;;13.07;8.50;;;;;;;3.10;72.75;99501.69;1087536;46;20054;-79
2022/12/08 02:03:50;;;;;;;11.10;7.60;;;;;;;3.07;72.63;99491.34;1087033;54;20945;-79
2022/12/08 02:04:54;;;;;;;15.18;9.80;;;;;;;2.76;73.47;99497.97;1087079;54;20084;-79
2022/12/08 02:05:59;;;;;;;14.93;9.70;;;;;;;2.68;73.92;99485.31;1086981;54;20042;-79
2022/12/08 02:07:04;;;;;;;17.90;10.65;;;;;;;2.74;73.69;99498.06;1087064;54;20057;-79
2022/12/08 02:08:08;;;;;;;14.85;10.48;;;;;;;2.69;73.80;99486.16;1086942;54;20042;-79
2022/12/08 02:09:12;;;;;;;13.57;9.80;;;;;;;2.71;73.69;99495.66;1087165;54;20046;-79
2022/12/08 02:10:19;;;;;;;15.43;10.10;;;;;;;2.70;73.67;99488.66;1087228;46;20065;-79
2022/12/08 02:11:23;;;;;;;15.95;11.25;;;;;;;2.64;74.10;99489.13;1087394;54;20034;-79
2022/12/08 02:12:25;;;;;;;14.63;9.82;;;;;;;2.67;73.92;99488.03;1087150;54;20043;-79
2022/12/08 02:13:31;;;;;;;13.80;9.65;;;;;;;2.61;74.32;99487.53;1087442;54;20098;-79
2022/12/08 02:14:33;;;;;;;13.90;9.25;;;;;;;2.77;73.61;99479.38;1087057;54;20061;-79
2022/12/08 02:15:45;;;;;;;13.05;9.57;;;;;;;2.87;73.40;99486.66;1087172;54;20045;-79
2022/12/08 02:16:59;;;;;;;13.57;8.90;;;;;;;2.91;73.30;99481.06;1087128;54;20054;-80
2022/12/08 02:18:16;;;;;;;16.35;9.82;;;;;;;2.92;73.10;99487.16;1087094;54;20050;-79
2022/12/08 02:19:45;;;;;;;13.15;8.93;;;;;;;2.96;72.98;99475.44;1087517;54;20057;-79
2022/12/08 02:20:58;;;;;;;13.73;8.38;;;;;;;2.97;73.07;99474.50;1087146;54;20046;-79
2022/12/08 02:22:10;;;;;;;12.65;8.60;;;;;;;2.94;73.11;99480.81;1087112;54;20038;-78
2022/12/08 02:23:25;;;;;;;11.82;7.65;;;;;;;3.03;72.85;99475.81;1087224;54;20547;-80
2022/12/08 02:24:36;;;;;;;12.35;8.00;;;;;;;3.05;72.89;99474.78;1087348;46;20031;-79
2022/12/08 02:25:53;;;;;;;13.32;8.60;;;;;;;3.09;72.49;99467.47;1086699;54;20061;-80
2022/12/08 02:27:24;;;;;;;13.57;9.07;;;;;;;2.93;72.73;99476.47;1087225;54;20064;-79
2022/12/08 02:28:39;;;;;;;;;;;;;;;2.90;73.26;99471.44;1087140;54;20065;-79
2022/12/08 02:30:16;;;;;;;11.98;7.75;;;;;;;2.91;72.55;99465.22;1086798;54;19946;-79
2022/12/08 02:31:32;;;;;;;11.88;7.50;;;;;;;2.90;72.87;99466.16;1086709;54;20027;-78
2022/12/08 02:33:07;;;;;;;11.38;7.75;;;;;;;2.97;72.43;99469.22;1086883;54;20038;-82
2022/12/08 02:34:23;;;;;;;13.20;8.18;;;;;;;3.03;72.47;99470.53;1086819;54;20057;-78
2022/12/08 02:35:32;;;;;;;13.38;7.63;;;;;;;2.96;72.66;99463.06;1087811;46;20061;-79
2022/12/08 02:36:44;;;;;;;12.68;7.97;;;;;;;3.03;72.67;99455.56;1086790;54;20038;-79
2022/12/08 02:37:50;;;;;;;12.93;8.75;;;;;;;3.02;72.89;99458.31;1086749;54;20090;-78
2022/12/08 02:39:03;;;;;;;12.30;8.65;;;;;;;3.00;72.40;99453.13;1086682;54;20090;-79
2022/12/08 02:40:12;;;;;;;11.73;7.65;;;;;;;2.96;72.75;99463.06;1086747;54;20030;-79
2022/12/08 02:41:27;;;;;;;13.80;8.65;;;;;;;3.04;72.45;99448.47;1086703;54;20060;-79
2022/12/08 02:42:37;;;;;;;13.85;9.25;;;;;;;2.75;73.05;99459.31;1086802;54;20093;-80
2022/12/08 02:43:43;;;;;;;12.05;8.57;;;;;;;2.84;73.26;99453.38;1086537;54;20045;-79
2022/12/08 02:44:54;;;;;;;12.43;8.45;;;;;;;2.95;73.01;99466.66;1086605;54;20038;-79
2022/12/08 02:46:01;;;;;;;12.35;8.45;;;;;;;2.96;72.62;99447.22;1086638;54;20045;-78
2022/12/08 02:47:10;;;;;;;12.95;7.90;;;;;;;2.96;72.76;99449.88;1086931;54;20039;-78
2022/12/08 02:48:11;;;;;;;12.27;7.93;;;;;;;3.01;72.47;99446.06;1087307;46;20045;-79
2022/12/08 02:49:18;;;;;;;12.63;8.77;;;;;;;2.99;72.57;99447.97;1086757;54;20102;-79
2022/12/08 02:50:20;;;;;;;14.43;8.80;;;;;;;2.93;72.64;99442.16;1087277;54;20841;-78
2022/12/08 02:51:24;;;;;;;12.40;8.32;;;;;;;2.89;72.74;99453.03;1086736;54;20042;-77
2022/12/08 02:52:39;;;;;;;11.52;8.30;;;;;;;2.92;72.69;99445.78;1086582;54;20058;-78
2022/12/08 02:53:43;;;;;;;11.93;7.88;;;;;;;2.97;72.75;99445.44;1086665;54;20948;-79
2022/12/08 02:54:48;;;;;;;10.90;7.38;;;;;;;3.00;72.45;99442.56;1086154;54;20034;-79
2022/12/08 02:56:04;;;;;;;13.88;8.88;;;;;;;2.95;72.44;99442.88;1086346;54;20050;-79
2022/12/08 02:57:27;;;;;;;10.30;7.30;;;;;;;2.97;72.34;99443.63;1086417;54;20042;-79
2022/12/08 02:59:04;;;;;;;11.02;7.40;;;;;;;2.97;72.15;99442.81;1086750;54;20034;-78
2022/12/08 03:00:09;;;;;;;11.90;7.93;;;;;;;2.93;72.51;99433.41;1085923;54;20077;-78
2022/12/08 03:01:31;;;;;;;12.15;7.70;;;;;;;2.97;72.21;99435.72;1086190;54;20110;-80
2022/12/08 03:02:46;;;;;;;10.18;6.97;;;;;;;2.97;72.28;99425.16;1085943;46;20057;-78
2022/12/08 03:04:04;;;;;;;12.63;7.43;;;;;;;2.97;72.39;99427.78;1086347;54;20039;-78
2022/12/08 03:05:19;;;;;;;10.07;6.90;;;;;;;2.96;72.47;99422.63;1086054;54;20094;-78
2022/12/08 03:06:29;;;;;;;12.05;7.82;;;;;;;2.90;72.49;99413.34;1086036;54;20805;-80
2022/12/08 03:07:37;;;;;;;13.05;7.55;;;;;;;2.79;72.44;99418.56;1085977;54;20781;-78
2022/12/08 03:08:50;;;;;;;16.42;9.80;;;;;;;2.80;72.79;99413.16;1086315;54;20049;-78
2022/12/08 03:10:01;;;;;;;12.52;7.93;;;;;;;2.85;72.53;99415.47;1086734;39;20456;-78
2022/12/08 03:11:10;;;;;;;12.70;7.90;;;;;;;2.88;72.31;99409.13;1086094;54;20057;-79
2022/12/08 03:12:20;;;;;;;12.80;8.50;;;;;;;2.88;72.29;99406.50;1086140;54;20050;-79
2022/12/08 03:13:29;;;;;;;12.30;8.10;;;;;;;2.91;72.27;99415.03;1085892;54;20061;-79
2022/12/08 03:14:33;;;;;;;11.27;7.40;;;;;;;2.91;72.38;99412.41;1086298;54;20054;-79
2022/12/08 03:15:40;;;;;;;11.02;7.85;;;;;;;2.90;72.28;99409.84;1086208;54;20039;-79
2022/12/08 03:16:44;;;;;;;12.48;7.93;;;;;;;2.88;72.16;99415.25;1086037;54;20046;-78
2022/12/08 03:17:53;;;;;;;12.55;7.45;;;;;;;2.88;72.42;99412.59;1086193;54;20057;-83
2022/12/08 03:19:01;;;;;;;12.55;8.20;;;;;;;2.77;72.67;99417.81;1086768;54;20599;-79
2022/12/08 03:20:10;;;;;;;10.98;7.72;;;;;;;2.79;72.76;99415.91;1086757;54;20035;-78
2022/12/08 03:21:17;;;;;;;14.95;7.75;;;;;;;2.85;72.73;99419.91;1086529;54;20058;-79
2022/12/08 03:22:26;;;;;;;12.80;7.65;;;;;;;2.84;72.56;99426.16;1086666;54;20040;-79
2022/12/08 03:23:29;;;;;;;11.25;7.82;;;;;;;2.81;72.38;99411.38;1086591;54;20035;-79
2022/12/08 03:24:36;;;;;;;11.82;7.60;;;;;;;2.85;72.53;99412.81;1086713;54;20061;-78
2022/12/08 03:25:47;;;;;;;13.40;7.97;;;;;;;2.79;72.76;99410.63;1087604;39;20488;-78
2022/12/08 03:26:57;;;;;;;11.60;8.00;;;;;;;2.84;72.44;99415.59;1086579;46;20034;-78
2022/12/08 03:27:59;;;;;;;12.05;8.15;;;;;;;2.86;72.53;99418.97;1086781;54;20054;-79
2022/12/08 03:29:03;;;;;;;11.60;7.85;;;;;;;2.77;72.52;99415.19;1086525;54;20050;-78
2022/12/08 03:30:07;;;;;;;11.25;7.63;;;;;;;2.63;73.09;99418.81;1086591;54;20057;-79
2022/12/08 03:31:16;;;;;;;13.32;8.18;;;;;;;2.74;72.78;99413.59;1086696;54;20038;-79
2022/12/08 03:32:23;;;;;;;12.98;7.72;;;;;;;2.79;72.56;99413.28;1086680;54;20590;-78
2022/12/08 03:33:31;;;;;;;11.23;7.55;;;;;;;2.85;72.60;99417.28;1086692;54;20114;-78
2022/12/08 03:34:34;;;;;;;12.10;7.40;;;;;;;2.88;72.33;99412.59;1086443;54;20073;-79
2022/12/08 03:35:42;;;;;;;12.25;8.20;;;;;;;2.90;72.25;99416.00;1086567;54;20053;-77
2022/12/08 03:36:46;;;;;;;10.82;7.15;;;;;;;2.92;72.18;99408.81;1086524;54;20046;-78
2022/12/08 03:37:50;;;;;;;10.10;6.75;;;;;;;2.93;71.96;99409.63;1086925;54;20030;-78
2022/12/08 03:38:53;;;;;;;11.50;7.75;;;;;;;2.80;72.34;99399.94;1086723;54;20046;-78
2022/12/08 03:39:58;;;;;;;10.88;7.55;;;;;;;2.81;72.33;99401.66;1086712;54;20042;-78
2022/12/08 03:42:19;;;;;;;12.68;8.38;;;;;;;2.69;72.80;99396.41;1086833;54;20049;-78
2022/12/08 03:43:21;;;;;;;12.43;9.00;;;;;;;2.56;72.77;99397.28;1086925;54;20039;-78
2022/12/08 03:44:25;;;;;;;13.15;9.40;;;;;;;2.43;73.21;99397.31;1087225;46;20057;-78
2022/12/08 03:45:27;;;;;;;12.63;8.27;;;;;;;2.47;73.39;99398.78;1086868;47;20073;-78
2022/12/08 03:46:33;;;;;;;13.90;8.98;;;;;;;2.37;73.64;99397.75;1086909;47;20510;-78
2022/12/08 03:47:34;;;;;;;12.98;9.38;;;;;;;2.31;73.82;99393.75;1086698;54;20065;-78
2022/12/08 03:48:38;;;;;;;14.60;8.80;;;;;;;2.32;73.83;99395.44;1086653;54;20047;-79
2022/12/08 03:49:40;;;;;;;15.20;9.25;;;;;;;2.22;74.21;99397.03;1086606;54;20122;-78
2022/12/08 03:50:44;;;;;;;13.57;9.95;;;;;;;2.27;74.02;99392.25;1086467;54;20038;-79
2022/12/08 03:51:48;;;;;;;13.45;9.30;;;;;;;2.39;73.86;99400.28;1087539;39;20507;-79
2022/12/08 03:52:52;;;;;;;13.07;8.90;;;;;;;2.44;73.65;99392.91;1086529;54;20098;-78
2022/12/08 03:53:54;;;;;;;13.45;8.90;;;;;;;2.47;73.52;99401.44;1086983;54;20044;-78
2022/12/08 03:54:59;;;;;;;13.13;8.43;;;;;;;2.58;73.03;99390.09;1087753;39;20790;-79
2022/12/08 03:56:03;;;;;;;11.77;8.10;;;;;;;2.61;73.07;99389.03;1086973;54;20038;-79
2022/12/08 03:57:07;;;;;;;11.90;7.47;;;;;;;2.64;72.90;99388.81;1087413;54;20039;-78
2022/12/08 03:58:09;;;;;;;14.90;9.98;;;;;;;2.53;73.07;99397.53;1087700;54;20026;-79
2022/12/08 03:59:14;;;;;;;14.45;8.98;;;;;;;2.49;73.37;99398.66;1087769;54;20038;-78
2022/12/08 04:00:16;;;;;;;14.43;10.43;;;;;;;2.35;73.74;99391.75;1087754;54;20057;-79
2022/12/08 04:01:21;;;;;;;15.10;10.13;;;;;;;2.30;73.84;99386.78;1087644;54;20018;-79
2022/12/08 04:02:25;;;;;;;15.68;10.73;;;;;;;2.27;74.06;99394.06;1087600;54;20039;-78
2022/12/08 04:03:27;;;;;;;14.52;10.52;;;;;;;2.32;74.15;99384.88;1087848;54;20052;-79
2022/12/08 04:04:31;;;;;;;14.85;10.77;;;;;;;2.37;73.89;99386.34;1088874;46;20072;-78
2022/12/08 04:05:36;;;;;;;16.52;10.63;;;;;;;2.49;73.55;99390.75;1087814;54;20061;-78
2022/12/08 04:06:40;;;;;;;14.05;9.45;;;;;;;2.57;73.29;99383.13;1087612;54;20038;-79
2022/12/08 04:07:45;;;;;;;14.63;9.20;;;;;;;2.59;73.02;99381.22;1087809;46;20064;-79
2022/12/08 04:08:50;;;;;;;11.90;8.38;;;;;;;2.59;72.94;99375.13;1087378;47;20034;-78
2022/12/08 04:09:51;;;;;;;12.07;8.50;;;;;;;2.62;72.87;99382.81;1087154;54;20072;-79
2022/12/08 04:10:55;;;;;;;13.18;8.48;;;;;;;2.64;72.92;99384.41;1087362;54;20023;-78
2022/12/08 04:11:57;;;;;;;12.63;8.13;;;;;;;2.62;72.70;99380.16;1087555;54;20034;-79
2022/12/08 04:13:01;;;;;;;12.10;7.82;;;;;;;2.55;72.81;99382.38;1089133;39;20230;-79
2022/12/08 04:14:04;;;;;;;11.52;7.45;;;;;;;2.60;72.75;99384.69;1087795;54;20010;-78
2022/12/08 04:15:09;;;;;;;13.73;8.35;;;;;;;2.65;72.60;99378.16;1089451;39;20503;-79
2022/12/08 04:16:15;;;;;;;10.05;7.35;;;;;;;2.61;72.58;99373.19;1087462;54;20034;-78
2022/12/08 04:17:19;;;;;;;11.98;8.32;;;;;;;2.57;72.70;99377.03;1087936;54;20034;-78
2022/12/08 04:18:21;;;;;;;10.88;6.43;;;;;;;2.59;72.63;99370.69;1087717;54;20034;-78
2022/12/08 04:19:25;;;;;;;12.73;7.65;;;;;;;2.60;72.54;99372.38;1087876;54;20030;-78
2022/12/08 04:20:32;;;;;;;11.20;7.07;;;;;;;2.52;72.38;99364.16;1087878;54;20046;-78
2022/12/08 04:21:36;;;;;;;11.32;7.82;;;;;;;2.53;72.34;99365.84;1087876;54;20045;-78
2022/12/08 04:22:40;;;;;;;12.63;7.93;;;;;;;2.61;72.56;99368.78;1087957;54;20027;-78
2022/12/08 04:23:46;;;;;;;11.60;7.72;;;;;;;2.55;72.34;99374.47;1087340;54;20050;-78
2022/12/08 04:24:48;;;;;;;11.15;7.50;;;;;;;2.60;72.40;99367.09;1086696;54;20039;-81
2022/12/08 04:25:53;;;;;;;13.25;8.15;;;;;;;2.53;72.35;99365.00;1086737;54;20050;-78
2022/12/08 04:26:55;;;;;;;11.15;7.63;;;;;;;2.63;72.40;99368.66;1088625;39;20540;-78
2022/12/08 04:27:59;;;;;;;11.10;7.47;;;;;;;2.63;72.37;99366.03;1087148;46;20080;-78
2022/12/08 04:29:03;;;;;;;10.35;7.32;;;;;;;2.51;72.23;99362.47;1086720;54;21103;-78
2022/12/08 04:30:07;;;;;;;13.10;8.63;;;;;;;2.42;72.93;99371.03;1087047;39;20426;-78
2022/12/08 04:31:11;;;;;;;13.05;8.05;;;;;;;2.56;72.18;99359.50;1086615;54;20038;-78
2022/12/08 04:32:15;;;;;;;11.75;7.95;;;;;;;2.53;72.21;99365.84;1087367;31;20537;-78
2022/12/08 04:33:17;;;;;;;10.70;7.03;;;;;;;2.59;72.39;99362.75;1086608;54;20091;-79
2022/12/08 04:34:21;;;;;;;13.50;8.73;;;;;;;2.32;72.66;99369.06;1086742;47;20042;-78
2022/12/08 04:35:23;;;;;;;13.88;8.98;;;;;;;2.29;72.86;99371.91;1086607;54;20034;-79
2022/12/08 04:36:27;;;;;;;11.55;8.25;;;;;;;2.18;73.22;99366.53;1086404;54;20038;-78
2022/12/08 04:37:28;;;;;;;13.20;8.57;;;;;;;2.21;73.26;99363.69;1086668;54;20583;-78
2022/12/08 04:38:33;;;;;;;13.57;7.85;;;;;;;2.32;72.93;99366.41;1086389;54;20038;-78
2022/12/08 04:39:37;;;;;;;14.48;9.50;;;;;;;2.07;73.38;99369.09;1086506;54;20042;-79
2022/12/08 04:40:42;;;;;;;13.00;8.88;;;;;;;2.02;73.67;99370.25;1086540;54;20026;-78
2022/12/08 04:41:43;;;;;;;13.13;9.07;;;;;;;1.94;74.20;99372.59;1086489;54;20038;-78
2022/12/08 04:42:48;;;;;;;13.13;8.82;;;;;;;2.01;73.80;99376.47;1086690;54;20144;-78
2022/12/08 04:43:49;;;;;;;12.02;8.45;;;;;;;2.01;73.88;99371.19;1086864;54;20037;-79
2022/12/08 04:44:53;;;;;;;13.57;8.95;;;;;;;2.16;73.39;99369.28;1087039;47;20034;-78
2022/12/08 04:45:55;;;;;;;13.73;8.95;;;;;;;2.21;73.29;99371.59;1086522;54;20089;-78
2022/12/08 04:46:59;;;;;;;11.15;7.93;;;;;;;2.29;73.21;99371.91;1086294;54;20073;-78
2022/12/08 04:48:01;;;;;;;12.65;8.10;;;;;;;2.34;72.95;99369.81;1086657;54;20043;-80
2022/12/08 04:49:05;;;;;;;13.48;8.77;;;;;;;2.32;72.87;99369.06;1087555;46;20065;-79
2022/12/08 04:50:07;;;;;;;11.82;7.50;;;;;;;2.41;72.46;99378.09;1086544;54;20058;-79
2022/12/08 04:51:16;;;;;;;12.25;8.05;;;;;;;2.45;72.50;99368.19;1086588;47;20041;-78
2022/12/08 04:52:18;;;;;;;11.80;7.38;;;;;;;2.48;72.28;99367.97;1086754;39;20921;-78
2022/12/08 04:53:22;;;;;;;11.30;7.55;;;;;;;2.49;72.52;99364.38;1087403;46;20034;-78
2022/12/08 04:54:24;;;;;;;11.68;6.80;;;;;;;2.50;72.32;99371.34;1086680;54;20165;-78
2022/12/08 04:55:31;;;;;;;11.13;7.38;;;;;;;2.50;72.46;99371.34;1086986;47;20545;-79
2022/12/08 04:56:35;;;;;;;11.80;7.88;;;;;;;2.50;72.46;99366.06;1086658;54;20042;-78
2022/12/08 04:57:37;;;;;;;11.02;7.45;;;;;;;2.52;72.39;99361.53;1086644;54;20054;-79
2022/12/08 04:58:41;;;;;;;12.65;7.80;;;;;;;2.50;72.43;99366.06;1086712;54;20046;-78
2022/12/08 04:59:43;;;;;;;11.15;7.50;;;;;;;2.56;72.26;99360.34;1086646;54;20047;-78
2022/12/08 05:00:49;;;;;;;10.40;7.20;;;;;;;2.60;72.27;99366.22;1086561;54;20038;-78
2022/12/08 05:01:50;;;;;;;11.40;7.53;;;;;;;2.57;72.15;99354.09;1087059;54;20065;-79
2022/12/08 05:02:55;;;;;;;10.90;7.60;;;;;;;2.58;72.17;99362.88;1086924;54;20041;-79
2022/12/08 05:03:59;;;;;;;11.10;7.45;;;;;;;2.63;72.06;99358.97;1087016;54;20046;-80
2022/12/08 05:05:04;;;;;;;10.35;7.07;;;;;;;2.61;71.94;99357.34;1087285;54;20046;-78
2022/12/08 05:06:08;;;;;;;12.70;7.80;;;;;;;2.67;72.20;99358.72;1088371;47;20041;-79
2022/12/08 05:07:11;;;;;;;10.15;6.80;;;;;;;2.68;71.73;99358.63;1087364;47;20121;-81
2022/12/08 05:08:15;;;;;;;11.85;7.63;;;;;;;2.70;71.82;99356.69;1086444;54;20034;-78
2022/12/08 05:09:17;;;;;;;11.18;7.07;;;;;;;2.69;71.85;99362.09;1086823;54;20072;-78
2022/12/08 05:10:21;;;;;;;11.07;7.18;;;;;;;2.72;71.89;99353.97;1086886;54;20041;-78
2022/12/08 05:11:28;;;;;;;10.95;7.20;;;;;;;2.52;71.90;99355.38;1086847;54;20042;-78
2022/12/08 05:12:29;;;;;;;15.52;9.27;;;;;;;2.37;73.03;99359.97;1086543;54;20049;-79
2022/12/08 05:13:34;;;;;;;16.23;9.45;;;;;;;2.28;73.15;99364.94;1086597;54;20038;-79
2022/12/08 05:14:36;;;;;;;14.32;9.57;;;;;;;2.15;73.46;99362.31;1086305;54;20073;-78
2022/12/08 05:15:40;;;;;;;15.27;10.68;;;;;;;2.05;73.98;99363.09;1086683;54;20038;-78